Time;durP1;ratioP1;P1;durP2;ratioP2;P2;SDS_P1;SDS_P2;PMS_P1;PMS_P2;Temp;Humidity;BMP_temperature;BMP_pressure;BME280_temperature;BME280_humidity;BME280_pressure;Samples;Min_cycle;Max_cycle;Signal;HPM_P1;HPM_P2
2021/03/10 00:00:08;;;;;;;17.23;10.95;;;;;;;-3.11;62.41;96677.53;1755249;82;21126;-82
2021/03/10 00:02:36;;;;;;;16.50;11.08;;;;;;;-3.13;62.43;96685.70;1755065;81;21334;-83
2021/03/10 00:05:06;;;;;;;15.48;11.45;;;;;;;-3.18;62.31;96684.36;1755254;82;21110;-82
2021/03/10 00:07:32;;;;;;;22.05;14.13;;;;;;;-3.20;62.17;96685.72;1755407;81;21115;-82
2021/03/10 00:09:58;;;;;;;31.00;16.27;;;;;;;-3.19;62.12;96687.34;1755159;82;21109;-82
2021/03/10 00:12:25;;;;;;;28.02;17.85;;;;;;;-3.20;61.90;96683.17;1755033;81;21154;-83
2021/03/10 00:14:51;;;;;;;37.40;21.55;;;;;;;-3.23;61.79;96684.63;1755304;81;21138;-82
2021/03/10 00:17:17;;;;;;;34.95;19.40;;;;;;;-3.26;62.01;96691.14;1755291;82;21103;-83
2021/03/10 00:19:43;;;;;;;21.00;13.65;;;;;;;-3.29;62.27;96686.24;1755260;82;21312;-82
2021/03/10 00:22:09;;;;;;;21.17;14.05;;;;;;;-3.32;62.23;96685.16;1754988;82;21418;-82
2021/03/10 00:24:35;;;;;;;20.35;13.50;;;;;;;-3.37;62.23;96684.16;1755094;82;21267;-82
2021/03/10 00:27:02;;;;;;;16.95;11.90;;;;;;;-3.38;62.25;96682.98;1755112;81;21118;-83
2021/03/10 00:29:28;;;;;;;16.07;11.33;;;;;;;-3.37;62.39;96680.34;1755182;82;21114;-82
2021/03/10 00:31:54;;;;;;;19.57;12.33;;;;;;;-3.36;62.53;96676.90;1755370;82;21086;-83
2021/03/10 00:34:19;;;;;;;17.57;11.48;;;;;;;-3.36;62.42;96677.35;1755152;82;21106;-83
2021/03/10 00:36:45;;;;;;;17.95;11.70;;;;;;;-3.41;62.32;96679.35;1755194;81;21110;-82
2021/03/10 00:39:11;;;;;;;19.85;12.35;;;;;;;-3.45;62.54;96682.95;1755254;82;21232;-82
2021/03/10 00:41:37;;;;;;;20.52;11.73;;;;;;;-3.48;62.74;96672.97;1726692;82;21480;-82
2021/03/10 00:44:04;;;;;;;19.85;12.85;;;;;;;-3.51;62.83;96675.70;1754595;82;21478;-82
2021/03/10 00:46:30;;;;;;;18.57;13.58;;;;;;;-3.52;62.85;96677.42;1754469;82;21134;-82
2021/03/10 00:48:55;;;;;;;28.52;16.73;;;;;;;-3.55;62.75;96675.06;1754299;82;21300;-82
2021/03/10 00:51:21;;;;;;;27.60;16.65;;;;;;;-3.55;62.85;96667.89;1754493;81;21268;-82
2021/03/10 00:53:47;;;;;;;35.80;22.80;;;;;;;-3.57;63.12;96669.25;1752231;81;21281;-82
2021/03/10 00:56:13;;;;;;;20.57;15.48;;;;;;;-3.53;63.06;96668.62;1740491;81;21232;-82
2021/03/10 00:58:39;;;;;;;16.42;11.18;;;;;;;-3.55;63.02;96664.91;1739951;82;21123;-82
2021/03/10 01:01:05;;;;;;;17.00;11.48;;;;;;;-3.57;62.85;96668.44;1740473;82;21361;-82
2021/03/10 01:03:31;;;;;;;18.17;12.63;;;;;;;-3.59;62.98;96671.49;1740049;82;21349;-82
2021/03/10 01:05:58;;;;;;;17.82;12.30;;;;;;;-3.63;62.95;96666.59;1740426;81;21135;-82
2021/03/10 01:08:24;;;;;;;22.65;13.20;;;;;;;-3.59;62.95;96671.49;1719621;82;21135;-82
2021/03/10 01:10:51;;;;;;;19.67;12.60;;;;;;;-3.53;62.81;96667.34;1740502;81;21135;-82
2021/03/10 01:13:17;;;;;;;21.52;13.68;;;;;;;-3.53;62.66;96669.44;1740377;81;21123;-82
2021/03/10 01:15:43;;;;;;;18.65;13.40;;;;;;;-3.55;62.56;96672.52;1740734;82;21245;-82
2021/03/10 01:18:09;;;;;;;18.10;12.82;;;;;;;-3.55;62.67;96667.44;1719237;82;21114;-82
2021/03/10 01:20:35;;;;;;;15.13;12.25;;;;;;;-3.57;62.76;96670.53;1740616;82;21134;-82
2021/03/10 01:23:01;;;;;;;19.87;12.68;;;;;;;-3.62;62.67;96669.95;1740198;82;21150;-82
2021/03/10 01:25:27;;;;;;;20.40;11.60;;;;;;;-3.65;62.64;96666.32;1719103;82;21160;-82
2021/03/10 01:27:54;;;;;;;16.87;12.35;;;;;;;-3.65;62.68;96666.32;1740392;82;21143;-82
2021/03/10 01:30:21;;;;;;;18.20;12.10;;;;;;;-3.64;62.93;96661.61;1740691;82;21135;-82
2021/03/10 01:32:47;;;;;;;17.52;11.25;;;;;;;-3.65;62.98;96662.06;1740265;82;21158;-82
2021/03/10 01:35:14;;;;;;;17.90;10.78;;;;;;;-3.69;63.16;96653.44;1740425;81;21353;-82
2021/03/10 01:37:40;;;;;;;18.00;11.43;;;;;;;-3.73;63.31;96656.62;1740492;82;21142;-82
2021/03/10 01:40:10;;;;;;;16.07;12.05;;;;;;;-3.76;63.28;96643.25;1740463;82;21167;-82
2021/03/10 01:42:36;;;;;;;16.82;12.15;;;;;;;-3.76;63.28;96643.25;1739990;82;21144;-82
2021/03/10 01:45:05;;;;;;;20.75;12.05;;;;;;;-3.75;63.20;96653.31;1740522;82;21269;-82
2021/03/10 01:47:32;;;;;;;17.02;11.83;;;;;;;-3.77;63.29;96651.33;1740476;82;21166;-82
2021/03/10 01:49:58;;;;;;;16.23;11.20;;;;;;;-3.78;63.45;96647.61;1740423;82;21146;-82
2021/03/10 01:52:24;;;;;;;12.63;10.40;;;;;;;-3.83;63.49;96644.06;1740345;82;21142;-82
2021/03/10 01:54:50;;;;;;;16.73;11.97;;;;;;;-3.83;63.44;96644.06;1740325;81;21130;-82
2021/03/10 01:57:16;;;;;;;14.53;11.97;;;;;;;-3.85;63.42;96650.14;1740278;82;21139;-83
2021/03/10 01:59:42;;;;;;;14.40;11.10;;;;;;;-3.84;63.54;96654.31;1740265;82;21139;-82
2021/03/10 02:02:08;;;;;;;12.37;10.03;;;;;;;-3.85;63.62;96653.95;1740208;82;21136;-82
2021/03/10 02:04:38;;;;;;;14.20;11.25;;;;;;;-3.86;63.59;96659.48;1740497;81;21983;-82
2021/03/10 02:07:34;;;;;;;19.15;12.07;;;;;;;-3.89;63.54;96645.70;1686350;84;21293;-82
2021/03/10 02:10:19;;;;;;;20.02;12.63;;;;;;;-3.90;63.51;96647.87;1701550;83;21098;-82
2021/03/10 02:13:17;;;;;;;22.52;15.13;;;;;;;-3.88;63.37;96645.24;1666164;84;21127;-82
2021/03/10 02:16:08;;;;;;;24.90;14.15;;;;;;;-3.89;63.51;96645.70;1701432;84;21135;-82
2021/03/10 02:18:38;;;;;;;24.45;15.68;;;;;;;-3.92;63.44;96645.39;1700495;84;21258;-82
2021/03/10 02:21:23;;;;;;;19.52;13.28;;;;;;;-3.94;63.44;96640.86;1700437;84;21167;-83
2021/03/10 02:24:18;;;;;;;15.05;11.65;;;;;;;-3.88;63.59;96643.52;1701194;84;21262;-83
2021/03/10 02:27:09;;;;;;;13.75;10.95;;;;;;;-3.86;63.70;96642.98;1701046;84;21143;-83
2021/03/10 02:29:36;;;;;;;14.35;10.88;;;;;;;-3.85;63.80;96632.37;1700682;84;21350;-83
2021/03/10 02:32:02;;;;;;;13.70;10.90;;;;;;;-3.88;63.93;96644.79;1700499;84;21134;-82
2021/03/10 02:34:28;;;;;;;16.87;11.08;;;;;;;-3.91;63.99;96639.86;1700410;84;21158;-82
2021/03/10 02:36:54;;;;;;;13.80;9.65;;;;;;;-3.93;63.90;96633.60;1700400;84;21533;-82
2021/03/10 02:39:20;;;;;;;15.45;10.60;;;;;;;-3.94;64.08;96641.31;1700180;84;21158;-83
2021/03/10 02:41:46;;;;;;;16.77;11.25;;;;;;;-3.95;64.03;96639.22;1700284;84;21289;-82
2021/03/10 02:44:12;;;;;;;15.83;11.50;;;;;;;-3.96;63.87;96635.05;1671252;84;21340;-82
2021/03/10 02:46:39;;;;;;;18.82;11.83;;;;;;;-3.92;63.90;96638.23;1700469;84;21396;-83
2021/03/10 02:49:06;;;;;;;20.70;13.72;;;;;;;-3.89;63.81;96643.16;1700516;84;21401;-83
2021/03/10 02:51:34;;;;;;;19.05;11.57;;;;;;;-3.89;63.79;96646.15;1700532;84;21265;-82
2021/03/10 02:54:01;;;;;;;17.70;12.60;;;;;;;-3.91;63.80;96643.67;1700586;84;21313;-83
2021/03/10 02:56:28;;;;;;;21.20;13.48;;;;;;;-3.88;63.79;96640.98;1670260;84;21388;-83
2021/03/10 02:58:54;;;;;;;17.67;12.55;;;;;;;-3.81;64.15;96632.55;1700340;84;21167;-83
2021/03/10 03:01:20;;;;;;;17.40;12.53;;;;;;;-3.77;64.10;96636.55;1670507;84;21158;-82
2021/03/10 03:03:46;;;;;;;13.65;9.95;;;;;;;-3.72;64.15;96637.94;1700186;84;21256;-83
2021/03/10 03:06:12;;;;;;;12.70;9.13;;;;;;;-3.67;64.16;96638.93;1700392;84;21253;-83
2021/03/10 03:08:38;;;;;;;12.75;8.90;;;;;;;-3.68;64.04;96643.20;1700386;84;21312;-83
2021/03/10 03:11:05;;;;;;;12.78;8.98;;;;;;;-3.71;64.03;96640.84;1700511;84;21138;-83
2021/03/10 03:13:31;;;;;;;12.65;9.03;;;;;;;-3.74;64.10;96641.02;1700454;84;21126;-83
2021/03/10 03:15:59;;;;;;;10.58;8.48;;;;;;;-3.71;63.96;96643.38;1670626;84;21134;-83
2021/03/10 03:18:29;;;;;;;11.03;8.55;;;;;;;-3.71;64.02;96640.02;1670938;84;21154;-83
2021/03/10 03:20:55;;;;;;;10.20;8.08;;;;;;;-3.70;64.00;96648.00;1701159;84;21126;-83
2021/03/10 03:23:23;;;;;;;12.88;8.55;;;;;;;-3.67;63.99;96643.55;1701165;84;21098;-83
2021/03/10 03:25:49;;;;;;;13.98;10.32;;;;;;;-3.64;64.15;96643.38;1701110;84;21142;-83
2021/03/10 03:28:20;;;;;;;14.10;9.23;;;;;;;-3.63;63.99;96644.19;1700943;84;21346;-83
2021/03/10 03:30:48;;;;;;;16.17;10.90;;;;;;;-3.63;63.97;96639.92;1701325;84;21332;-83
2021/03/10 03:33:20;;;;;;;12.50;9.75;;;;;;;-3.59;63.77;96638.02;1700904;84;21317;-83
2021/03/10 03:35:48;;;;;;;13.80;9.63;;;;;;;-3.60;63.80;96640.66;1701294;84;21552;-83
2021/03/10 03:38:14;;;;;;;16.85;11.83;;;;;;;-3.58;63.72;96639.69;1671466;84;21134;-83
2021/03/10 03:40:40;;;;;;;17.45;10.53;;;;;;;-3.58;63.74;96638.41;1670814;84;21142;-83
2021/03/10 03:43:08;;;;;;;14.00;10.00;;;;;;;-3.59;63.71;96639.29;1701172;84;21326;-83
2021/03/10 03:45:34;;;;;;;14.65;11.75;;;;;;;-3.61;63.54;96642.38;1701130;84;21506;-83
2021/03/10 03:48:00;;;;;;;12.93;10.18;;;;;;;-3.64;63.49;96637.48;1700968;84;21109;-83
2021/03/10 03:50:27;;;;;;;13.98;9.40;;;;;;;-3.64;63.46;96637.02;1701134;84;21110;-83
2021/03/10 03:52:54;;;;;;;15.63;10.90;;;;;;;-3.63;63.47;96644.19;1700961;84;21166;-83
2021/03/10 03:55:21;;;;;;;16.07;10.82;;;;;;;-3.66;63.23;96643.92;1700985;84;21149;-83
2021/03/10 03:57:47;;;;;;;14.98;10.82;;;;;;;-3.73;62.99;96648.19;1701052;84;21253;-83
2021/03/10 04:00:17;;;;;;;16.23;10.60;;;;;;;-3.79;62.94;96646.78;1701077;84;21130;-83
2021/03/10 04:02:47;;;;;;;13.75;10.00;;;;;;;-3.78;62.87;96661.57;1700963;84;21113;-83
2021/03/10 04:05:14;;;;;;;12.65;9.65;;;;;;;-3.80;62.79;96660.84;1701022;84;21143;-83
2021/03/10 04:07:52;;;;;;;10.98;8.48;;;;;;;-3.82;62.72;96655.04;1701119;84;21131;-83
2021/03/10 04:10:25;;;;;;;12.43;9.78;;;;;;;-3.85;62.53;96661.56;1701188;84;21099;-83
2021/03/10 04:12:52;;;;;;;11.55;9.15;;;;;;;-3.90;62.53;96668.18;1701010;84;21143;-83
2021/03/10 04:15:18;;;;;;;9.98;7.95;;;;;;;-3.94;62.49;96659.89;1700982;84;21126;-83
2021/03/10 04:17:44;;;;;;;12.07;8.68;;;;;;;-3.97;62.44;96662.61;1701167;84;21118;-83
2021/03/10 04:20:13;;;;;;;13.80;9.30;;;;;;;-4.01;62.24;96657.80;1701207;84;21248;-83
2021/03/10 04:22:40;;;;;;;10.28;7.12;;;;;;;-4.05;62.17;96660.16;1671033;84;21147;-83
2021/03/10 04:25:07;;;;;;;12.80;8.58;;;;;;;-4.09;61.97;96661.20;1701128;84;21162;-83
2021/03/10 04:27:33;;;;;;;11.85;7.70;;;;;;;-4.13;62.14;96661.02;1700959;84;21139;-83
2021/03/10 04:30:00;;;;;;;15.40;9.23;;;;;;;-4.19;62.39;96653.75;1701180;84;21479;-83
2021/03/10 04:32:25;;;;;;;11.95;9.33;;;;;;;-4.21;62.41;96658.09;1701214;84;21134;-83
2021/03/10 04:34:52;;;;;;;10.82;8.78;;;;;;;-4.23;62.53;96659.45;1700631;84;21353;-83
2021/03/10 04:37:17;;;;;;;13.48;8.80;;;;;;;-4.27;62.54;96657.51;1700509;84;21119;-83
2021/03/10 04:39:43;;;;;;;16.37;9.30;;;;;;;-4.31;62.72;96657.31;1700705;84;21151;-83
2021/03/10 04:42:10;;;;;;;13.98;9.35;;;;;;;-4.31;62.76;96664.93;1700263;84;21162;-83
2021/03/10 04:44:36;;;;;;;10.85;8.60;;;;;;;-4.30;62.86;96668.28;1700436;84;21369;-82
2021/03/10 04:47:02;;;;;;;13.40;9.05;;;;;;;-4.31;62.84;96671.27;1700925;84;21142;-83
2021/03/10 04:49:28;;;;;;;14.07;9.85;;;;;;;-4.30;62.77;96674.17;1700740;84;21293;-83
2021/03/10 04:51:54;;;;;;;17.23;11.00;;;;;;;-4.26;62.71;96665.94;1700652;84;21651;-82
2021/03/10 04:54:20;;;;;;;11.73;9.43;;;;;;;-4.29;62.66;96669.92;1700701;84;21265;-82
2021/03/10 04:56:46;;;;;;;15.90;10.72;;;;;;;-4.32;62.66;96669.64;1700655;83;21399;-82
2021/03/10 04:59:12;;;;;;;16.52;12.03;;;;;;;-4.34;62.63;96670.63;1700462;84;21147;-82
2021/03/10 05:01:38;;;;;;;17.27;13.25;;;;;;;-4.31;62.74;96670.00;1700728;84;21151;-83
2021/03/10 05:04:04;;;;;;;17.75;12.98;;;;;;;-4.32;62.65;96673.89;1700256;84;21503;-83
2021/03/10 05:06:30;;;;;;;21.60;14.65;;;;;;;-4.35;62.75;96668.55;1700697;84;21143;-82
2021/03/10 05:08:56;;;;;;;18.42;11.90;;;;;;;-4.38;62.75;96673.78;1700602;84;21341;-83
2021/03/10 05:11:22;;;;;;;16.15;11.95;;;;;;;-4.40;62.73;96673.02;1700310;84;21146;-83
2021/03/10 05:13:48;;;;;;;17.67;12.28;;;;;;;-4.43;62.82;96679.53;1700580;84;21147;-82
2021/03/10 05:16:15;;;;;;;17.37;12.88;;;;;;;-4.46;62.75;96680.16;1700866;84;21158;-82
2021/03/10 05:18:42;;;;;;;11.28;8.73;;;;;;;-4.46;62.94;96678.89;1670796;84;21174;-82
2021/03/10 05:21:08;;;;;;;9.23;8.15;;;;;;;-4.47;62.57;96681.88;1700991;84;21268;-82
2021/03/10 05:23:34;;;;;;;10.48;7.97;;;;;;;-4.49;62.44;96686.22;1700766;84;21475;-82
2021/03/10 05:26:00;;;;;;;12.00;9.38;;;;;;;-4.50;62.46;96678.70;1700777;84;21261;-82
2021/03/10 05:28:26;;;;;;;11.53;8.60;;;;;;;-4.52;62.16;96678.78;1700612;84;21367;-83
2021/03/10 05:30:52;;;;;;;13.95;8.73;;;;;;;-4.52;62.29;96684.30;1700799;84;21138;-83
2021/03/10 05:33:18;;;;;;;12.82;9.68;;;;;;;-4.54;62.29;96684.39;1670567;84;21352;-82
2021/03/10 05:35:44;;;;;;;13.83;9.98;;;;;;;-4.54;62.20;96683.13;1700750;84;21381;-83
2021/03/10 05:38:10;;;;;;;13.90;10.13;;;;;;;-4.55;61.96;96680.22;1700553;84;21263;-83
2021/03/10 05:40:36;;;;;;;16.60;10.90;;;;;;;-4.49;62.00;96686.22;1700561;84;21373;-83
2021/03/10 05:43:02;;;;;;;15.53;10.78;;;;;;;-4.44;62.09;96685.97;1700469;84;21134;-83
2021/03/10 05:45:28;;;;;;;15.28;11.55;;;;;;;-4.40;62.14;96685.70;1700712;84;21107;-83
2021/03/10 05:47:54;;;;;;;19.55;12.47;;;;;;;-4.36;62.28;96691.01;1700607;84;21143;-82
2021/03/10 05:50:20;;;;;;;20.40;13.18;;;;;;;-4.34;62.27;96688.39;1700739;84;21134;-82
2021/03/10 05:52:49;;;;;;;15.55;11.53;;;;;;;-4.32;62.38;96689.12;1700597;84;21159;-82
2021/03/10 05:55:16;;;;;;;19.32;13.40;;;;;;;-4.32;62.50;96685.31;1702129;83;21655;-83
2021/03/10 05:57:43;;;;;;;17.73;12.47;;;;;;;-4.29;62.47;96687.67;1690368;84;21129;-83
2021/03/10 06:00:13;;;;;;;19.67;14.47;;;;;;;-4.26;62.43;96691.31;1706700;84;21361;-83
2021/03/10 06:02:39;;;;;;;19.60;13.10;;;;;;;-4.23;62.58;96686.09;1715873;84;21133;-83
2021/03/10 06:05:12;;;;;;;20.88;13.38;;;;;;;-4.18;62.55;96692.99;1706232;84;21106;-83
2021/03/10 06:07:38;;;;;;;12.60;9.90;;;;;;;-4.12;62.62;96690.11;1712459;84;21150;-83
2021/03/10 06:10:06;;;;;;;14.43;9.88;;;;;;;-4.05;62.48;96694.41;1705993;84;21369;-83
2021/03/10 06:12:42;;;;;;;12.80;9.33;;;;;;;-4.01;62.43;96695.42;1715707;84;21169;-83
2021/03/10 06:15:10;;;;;;;14.33;9.05;;;;;;;-3.92;62.42;96701.23;1705812;84;21170;-83
2021/03/10 06:17:49;;;;;;;12.85;9.20;;;;;;;-3.85;62.14;96704.27;1715644;84;21158;-83
2021/03/10 06:20:27;;;;;;;14.38;9.73;;;;;;;-3.79;62.08;96704.38;1706451;84;21344;-83
2021/03/10 06:22:54;;;;;;;17.87;11.55;;;;;;;-3.72;61.78;96710.30;1715438;84;21134;-83
2021/03/10 06:25:22;;;;;;;24.92;16.00;;;;;;;-3.66;61.51;96707.86;1687098;85;21193;-83
2021/03/10 06:27:55;;;;;;;30.10;17.27;;;;;;;-3.56;61.75;96709.44;1706547;84;21131;-83
2021/03/10 06:30:45;;;;;;;33.85;20.37;;;;;;;-3.55;61.67;96719.97;1715866;84;21494;-83
2021/03/10 06:33:20;;;;;;;33.73;20.65;;;;;;;-3.54;61.95;96724.95;1706115;84;21138;-83
2021/03/10 06:35:47;;;;;;;41.55;22.32;;;;;;;-3.53;62.16;96725.32;1715953;84;21359;-83
2021/03/10 06:38:14;;;;;;;32.58;18.73;;;;;;;-3.49;62.20;96733.13;1706516;84;21105;-83
2021/03/10 06:40:56;;;;;;;31.00;18.92;;;;;;;-3.48;62.17;96732.22;1716228;84;21141;-83
2021/03/10 06:43:38;;;;;;;32.93;19.30;;;;;;;-3.43;62.20;96737.03;1706404;84;21154;-83
2021/03/10 06:46:15;;;;;;;32.53;18.77;;;;;;;-3.37;62.22;96740.06;1715790;84;21105;-83
2021/03/10 06:48:57;;;;;;;28.73;18.07;;;;;;;-3.27;62.18;96745.87;1687240;85;21145;-83
2021/03/10 06:51:24;;;;;;;30.27;18.60;;;;;;;-3.19;62.20;96751.34;1706364;84;21153;-83
2021/03/10 06:53:50;;;;;;;27.13;19.02;;;;;;;-3.07;61.92;96748.92;1715393;84;21396;-83
2021/03/10 06:56:27;;;;;;;31.82;20.00;;;;;;;-2.93;62.16;96748.54;1703144;83;21280;-83
2021/03/10 06:59:01;;;;;;;34.05;22.52;;;;;;;-2.85;61.98;96748.92;1700311;84;21115;-83
2021/03/10 07:01:39;;;;;;;37.15;24.15;;;;;;;-2.75;62.54;96747.48;1700765;84;21158;-83
2021/03/10 07:04:06;;;;;;;37.03;21.52;;;;;;;-2.63;62.55;96754.36;1670385;84;21171;-83
2021/03/10 07:06:33;;;;;;;37.45;23.42;;;;;;;-2.49;62.37;96756.90;1700494;84;21162;-83
2021/03/10 07:08:59;;;;;;;42.90;24.82;;;;;;;-2.40;61.76;96768.27;1700479;84;21146;-83
2021/03/10 07:11:25;;;;;;;40.28;25.65;;;;;;;-2.26;62.12;96759.34;1700495;84;21382;-83
2021/03/10 07:13:51;;;;;;;38.48;24.47;;;;;;;-2.17;61.72;96757.48;1700336;84;21397;-83
2021/03/10 07:16:17;;;;;;;37.85;22.02;;;;;;;-2.06;61.89;96765.75;1700135;84;21170;-83
2021/03/10 07:18:44;;;;;;;39.05;24.10;;;;;;;-1.95;61.60;96766.37;1700604;84;21142;-83
2021/03/10 07:21:10;;;;;;;45.85;28.67;;;;;;;-1.80;61.56;96767.92;1700537;84;21320;-83
2021/03/10 07:23:41;;;;;;;46.53;32.10;;;;;;;-1.67;60.98;96766.70;1700542;84;21491;-83
2021/03/10 07:26:06;;;;;;;48.55;33.28;;;;;;;-1.65;60.61;96769.52;1700494;84;21158;-83
2021/03/10 07:28:32;;;;;;;47.27;27.25;;;;;;;-1.54;60.44;96768.38;1700491;84;21405;-83
2021/03/10 07:30:58;;;;;;;47.08;30.52;;;;;;;-1.51;60.24;96771.19;1700442;84;21149;-83
2021/03/10 07:33:24;;;;;;;50.38;29.40;;;;;;;-1.39;60.23;96769.59;1700481;84;21134;-83
2021/03/10 07:35:59;;;;;;;46.25;27.80;;;;;;;-1.26;60.14;96767.44;1700572;84;21252;-83
2021/03/10 07:38:35;;;;;;;46.40;27.73;;;;;;;-1.15;59.91;96771.00;1700177;84;21392;-83
2021/03/10 07:41:06;;;;;;;44.88;27.65;;;;;;;-1.05;59.67;96774.14;1698150;84;21155;-83
2021/03/10 07:43:38;;;;;;;44.70;26.77;;;;;;;-0.98;59.61;96771.98;1672077;86;21142;-84
2021/03/10 07:46:17;;;;;;;46.28;29.67;;;;;;;-0.87;59.40;96775.93;1673026;86;21118;-83
2021/03/10 07:48:43;;;;;;;46.35;29.10;;;;;;;-0.78;59.11;96770.69;1672309;85;21144;-83
2021/03/10 07:51:09;;;;;;;49.20;31.12;;;;;;;-0.68;58.90;96776.33;1672466;85;21151;-83
2021/03/10 07:53:37;;;;;;;50.52;31.50;;;;;;;-0.63;58.72;96774.31;1672601;85;21268;-84
2021/03/10 07:56:04;;;;;;;48.83;31.00;;;;;;;-0.59;58.79;96783.03;1673866;84;21162;-83
2021/03/10 07:58:31;;;;;;;51.37;32.85;;;;;;;-0.51;58.53;96785.87;1658016;86;21129;-83
2021/03/10 08:00:58;;;;;;;54.75;34.80;;;;;;;-0.42;58.46;96783.98;1677638;85;21328;-83
2021/03/10 08:03:32;;;;;;;53.00;32.65;;;;;;;-0.29;58.33;96786.52;1687726;85;21102;-83
2021/03/10 08:06:05;;;;;;;57.23;36.50;;;;;;;-0.10;58.40;96791.53;1678462;85;21123;-83
2021/03/10 08:08:39;;;;;;;56.70;35.05;;;;;;;0.03;58.06;96786.39;1658669;86;21109;-84
2021/03/10 08:11:16;;;;;;;60.88;38.83;;;;;;;0.11;57.64;96793.52;1678390;85;21138;-83
2021/03/10 08:13:42;;;;;;;62.98;38.05;;;;;;;0.20;57.36;96789.05;1687209;85;21161;-83
2021/03/10 08:16:10;;;;;;;65.03;39.78;;;;;;;0.20;57.42;96791.14;1678332;85;21170;-83
2021/03/10 08:18:36;;;;;;;67.10;41.60;;;;;;;0.28;56.80;96793.14;1658007;86;21176;-83
2021/03/10 08:21:12;;;;;;;73.07;43.45;;;;;;;0.37;57.23;96787.39;1687045;85;21267;-83
2021/03/10 08:23:38;;;;;;;61.37;36.23;;;;;;;0.49;57.18;96794.66;1677840;85;21122;-83
2021/03/10 08:26:06;;;;;;;61.13;37.93;;;;;;;0.52;57.52;96784.21;1687147;85;21165;-83
2021/03/10 08:28:34;;;;;;;63.78;36.08;;;;;;;0.57;57.65;96783.41;1677772;85;21314;-83
2021/03/10 08:31:02;;;;;;;45.35;28.23;;;;;;;0.68;56.61;96783.92;1687643;85;21145;-83
2021/03/10 08:33:29;;;;;;;47.13;25.88;;;;;;;0.73;54.77;96786.95;1687093;85;21412;-83
2021/03/10 08:35:55;;;;;;;23.98;13.45;;;;;;;0.72;54.49;96793.00;1678425;85;21133;-84
2021/03/10 08:38:21;;;;;;;15.55;11.50;;;;;;;0.71;52.98;96795.20;1658837;86;21121;-83
2021/03/10 08:40:47;;;;;;;12.75;9.00;;;;;;;0.68;49.95;96790.32;1678318;85;21146;-83
2021/03/10 08:43:18;;;;;;;17.50;12.43;;;;;;;0.58;46.53;96794.80;1687908;85;21128;-83
2021/03/10 08:45:44;;;;;;;12.98;8.93;;;;;;;0.50;49.12;96797.11;1678472;85;21123;-83
2021/03/10 08:48:12;;;;;;;13.18;9.78;;;;;;;0.55;47.80;96789.10;1687240;85;21109;-83
2021/03/10 08:50:44;;;;;;;16.50;10.45;;;;;;;0.58;48.93;96793.98;1678314;85;21134;-83
2021/03/10 08:53:13;;;;;;;;;;;;;;;0.57;44.82;96795.73;1690209;85;21357;-83
2021/03/10 08:55:40;;;;;;;18.98;12.78;;;;;;;0.48;47.05;96798.12;1678604;85;20310;-83
2021/03/10 08:58:14;;;;;;;29.42;15.48;;;;;;;0.45;47.55;96801.71;1675430;84;21163;-84
2021/03/10 09:00:40;;;;;;;28.95;15.15;;;;;;;0.55;49.42;96801.42;1674672;86;21189;-84
2021/03/10 09:03:13;;;;;;;17.77;10.48;;;;;;;0.72;48.23;96795.56;1674517;85;21277;-83
2021/03/10 09:05:41;;;;;;;14.87;10.45;;;;;;;0.83;47.46;96794.33;1674925;85;21119;-84
2021/03/10 09:08:08;;;;;;;24.45;13.48;;;;;;;0.90;47.90;96795.50;1674761;86;21138;-83
2021/03/10 09:10:35;;;;;;;23.05;13.55;;;;;;;0.95;46.00;96806.20;1647742;86;21170;-83
2021/03/10 09:13:01;;;;;;;36.48;21.77;;;;;;;0.92;45.96;96803.88;1674776;85;21481;-83
2021/03/10 09:15:29;;;;;;;25.30;15.40;;;;;;;0.97;47.25;96802.25;1674719;86;21302;-83
2021/03/10 09:18:06;;;;;;;22.95;14.65;;;;;;;1.02;47.31;96797.64;1674947;86;21187;-83
2021/03/10 09:20:36;;;;;;;19.45;12.90;;;;;;;1.02;44.42;96799.73;1647877;86;21280;-83
2021/03/10 09:23:02;;;;;;;18.02;11.95;;;;;;;1.00;45.17;96805.42;1674966;85;21182;-83
2021/03/10 09:25:33;;;;;;;15.15;10.75;;;;;;;1.09;46.13;96800.90;1675035;86;21177;-83
2021/03/10 09:28:09;;;;;;;15.72;10.38;;;;;;;1.07;45.06;96801.94;1674755;86;21155;-83
2021/03/10 09:30:41;;;;;;;13.85;10.13;;;;;;;1.09;45.86;96792.41;1674734;86;21155;-83
2021/03/10 09:33:25;;;;;;;9.13;7.58;;;;;;;1.17;46.14;96797.32;1675040;85;21134;-83
2021/03/10 09:35:59;;;;;;;15.08;9.90;;;;;;;1.22;44.61;96792.31;1674191;86;21170;-84
2021/03/10 09:38:26;;;;;;;13.08;9.25;;;;;;;1.22;45.29;96797.44;1674875;85;21162;-83
2021/03/10 09:40:57;;;;;;;12.35;9.18;;;;;;;1.24;44.82;96793.02;1675434;86;21142;-84
2021/03/10 09:43:26;;;;;;;8.85;7.28;;;;;;;1.24;44.59;96796.86;1675684;86;21233;-84
2021/03/10 09:46:01;;;;;;;14.63;10.15;;;;;;;1.34;44.22;96796.53;1675351;86;21158;-84
2021/03/10 09:48:31;;;;;;;10.78;8.48;;;;;;;1.41;44.86;96806.19;1675407;86;21314;-84
2021/03/10 09:51:15;;;;;;;8.38;7.42;;;;;;;1.53;44.20;96804.93;1675339;86;21146;-84
2021/03/10 09:53:48;;;;;;;11.08;8.83;;;;;;;1.61;44.34;96802.59;1675490;86;21313;-84
2021/03/10 09:56:15;;;;;;;;;;;;;;;1.67;44.75;96800.40;1676608;84;21139;-83
2021/03/10 09:58:56;;;;;;;8.30;7.45;;;;;;;1.70;42.28;96802.72;1665419;86;20141;-84
2021/03/10 10:01:26;;;;;;;10.08;7.22;;;;;;;1.71;42.05;96797.95;1665439;86;21100;-84
2021/03/10 10:03:53;;;;;;;13.30;10.28;;;;;;;1.67;42.50;96802.15;1665445;86;21123;-84
2021/03/10 10:06:20;;;;;;;12.23;9.53;;;;;;;1.69;42.25;96805.41;1665481;86;21155;-84
2021/03/10 10:08:47;;;;;;;12.53;9.50;;;;;;;1.73;42.18;96802.95;1665675;86;21131;-84
2021/03/10 10:11:13;;;;;;;12.80;10.00;;;;;;;1.72;41.05;96794.92;1665454;86;21498;-84
2021/03/10 10:13:43;;;;;;;18.73;12.20;;;;;;;1.68;41.55;96799.47;1665586;86;21146;-84
2021/03/10 10:16:12;;;;;;;15.43;11.53;;;;;;;1.67;42.21;96800.40;1665514;86;21138;-84
2021/03/10 10:18:38;;;;;;;17.17;11.55;;;;;;;1.74;42.73;96807.95;1665456;86;21135;-84
2021/03/10 10:21:05;;;;;;;17.75;12.43;;;;;;;1.86;43.20;96809.24;1665610;86;21131;-84
2021/03/10 10:23:31;;;;;;;16.30;11.83;;;;;;;1.93;42.31;96800.95;1665460;86;21100;-84
2021/03/10 10:25:57;;;;;;;16.20;11.95;;;;;;;1.92;41.73;96803.17;1665626;86;21453;-84
2021/03/10 10:28:23;;;;;;;21.35;14.38;;;;;;;1.86;41.48;96805.40;1665410;86;21178;-84
2021/03/10 10:30:49;;;;;;;12.58;9.73;;;;;;;1.84;41.64;96801.67;1665413;86;21412;-84
2021/03/10 10:33:15;;;;;;;15.20;10.63;;;;;;;1.82;41.01;96810.41;1665483;86;21370;-84
2021/03/10 10:35:42;;;;;;;12.50;9.88;;;;;;;1.83;41.21;96800.05;1665651;86;21115;-84
2021/03/10 10:38:08;;;;;;;10.50;9.33;;;;;;;1.86;40.97;96810.52;1665550;86;21099;-84
2021/03/10 10:40:34;;;;;;;13.03;10.18;;;;;;;1.90;40.85;96796.53;1665573;86;21423;-84
2021/03/10 10:43:00;;;;;;;12.45;10.93;;;;;;;1.97;41.71;96791.30;1665639;86;21130;-84
2021/03/10 10:45:26;;;;;;;13.85;10.32;;;;;;;2.08;42.23;96797.67;1665746;86;21284;-84
2021/03/10 10:47:53;;;;;;;14.10;11.73;;;;;;;2.08;41.03;96791.27;1665729;86;21123;-84
2021/03/10 10:50:19;;;;;;;17.35;12.37;;;;;;;2.02;41.33;96800.26;1665736;86;21083;-84
2021/03/10 10:55:23;;;;;;;15.40;11.40;;;;;;;2.11;42.18;96789.74;1851446;77;23036;-83
2021/03/10 10:57:49;;;;;;;13.30;11.15;;;;;;;2.12;41.69;96797.81;1828693;78;21131;-83
2021/03/10 11:00:23;;;;;;;15.30;12.95;;;;;;;2.13;40.64;96797.34;1828526;78;21374;-83
2021/03/10 11:02:49;;;;;;;15.15;11.95;;;;;;;2.15;41.14;96802.69;1825300;78;21424;-82
2021/03/10 11:05:15;;;;;;;14.58;10.95;;;;;;;2.10;40.44;96800.93;1828760;78;21246;-83
2021/03/10 11:07:41;;;;;;;11.85;9.20;;;;;;;2.12;39.95;96796.53;1828703;78;21134;-83
2021/03/10 11:10:08;;;;;;;20.00;14.10;;;;;;;2.15;41.41;96803.97;1828568;78;21111;-83
2021/03/10 11:12:34;;;;;;;15.05;11.75;;;;;;;2.04;40.51;96806.08;1828890;78;21329;-83
2021/03/10 11:15:01;;;;;;;15.85;12.43;;;;;;;2.05;40.29;96808.17;1798970;78;21174;-83
2021/03/10 11:17:27;;;;;;;16.70;12.70;;;;;;;2.12;40.96;96802.94;1828539;78;21154;-83
2021/03/10 11:19:53;;;;;;;15.63;12.00;;;;;;;2.20;41.52;96799.77;1828555;78;21130;-83
2021/03/10 11:22:19;;;;;;;16.48;12.05;;;;;;;2.26;41.78;96800.08;1828561;78;21412;-83
2021/03/10 11:24:45;;;;;;;14.55;11.70;;;;;;;2.24;40.40;96802.42;1828557;78;21127;-82
2021/03/10 11:27:11;;;;;;;12.95;11.15;;;;;;;2.21;39.49;96799.64;1828593;78;21234;-83
2021/03/10 11:29:37;;;;;;;19.42;13.58;;;;;;;2.23;39.39;96804.17;1797918;78;21548;-83